createdAt,value
2017-11-07T00:00:59.146Z,100541.85
2017-11-07T00:03:26.688Z,100542.81
2017-11-07T00:05:54.267Z,100546.20
2017-11-07T00:08:22.407Z,100543.53
2017-11-07T00:10:50.006Z,100544.77
2017-11-07T00:13:17.578Z,100549.66
2017-11-07T00:15:45.118Z,100550.50
2017-11-07T00:18:12.719Z,100556.00
2017-11-07T00:20:40.314Z,100551.22
2017-11-07T00:23:07.851Z,100548.28
2017-11-07T00:25:35.394Z,100541.38
2017-11-07T00:28:02.985Z,100547.66
2017-11-07T00:30:30.551Z,100537.61
2017-11-07T00:32:58.093Z,100541.98
2017-11-07T00:35:25.670Z,100539.02
2017-11-07T00:37:53.213Z,100543.13
2017-11-07T00:40:20.759Z,100538.30
2017-11-07T00:42:48.339Z,100537.70
2017-11-07T00:45:15.887Z,100528.42
2017-11-07T00:47:43.434Z,100534.22
2017-11-07T00:50:11.018Z,100536.46
2017-11-07T00:52:38.566Z,100531.52
2017-11-07T00:55:06.106Z,100530.67
2017-11-07T00:57:33.687Z,100536.58
2017-11-07T01:00:01.243Z,100530.30
2017-11-07T01:02:28.787Z,100541.31
2017-11-07T01:04:56.374Z,100540.63
2017-11-07T01:07:23.924Z,100540.89
2017-11-07T01:09:51.462Z,100539.90
2017-11-07T01:12:19.043Z,100550.12
2017-11-07T01:14:46.586Z,100547.29
2017-11-07T01:17:14.128Z,100545.82
2017-11-07T01:19:41.707Z,100544.72
2017-11-07T01:22:09.259Z,100548.12
2017-11-07T01:24:36.806Z,100548.77
2017-11-07T01:27:04.382Z,100550.50
2017-11-07T01:29:31.927Z,100548.09
2017-11-07T01:31:59.479Z,100550.23
2017-11-07T01:34:27.054Z,100547.20
2017-11-07T01:36:54.594Z,100542.91
2017-11-07T01:39:22.137Z,100548.80
2017-11-07T01:41:49.774Z,100549.28
2017-11-07T01:44:17.310Z,100546.53
2017-11-07T01:46:44.858Z,100548.77
2017-11-07T01:49:12.476Z,100551.31
2017-11-07T01:51:40.023Z,100557.05
2017-11-07T01:54:07.635Z,100553.06
2017-11-07T01:56:35.305Z,100555.13
2017-11-07T01:59:02.968Z,100549.98
2017-11-07T02:01:30.643Z,100550.88
2017-11-07T02:03:58.359Z,100552.75
2017-11-07T02:06:26.015Z,100554.13
2017-11-07T02:08:53.625Z,100550.31
2017-11-07T02:11:21.332Z,100548.28
2017-11-07T02:13:48.950Z,100548.39
2017-11-07T02:16:16.551Z,100553.91
2017-11-07T02:18:44.191Z,100551.36
2017-11-07T02:21:11.807Z,100543.72
2017-11-07T02:23:39.419Z,100555.08
2017-11-07T02:26:07.083Z,100553.72
2017-11-07T02:28:34.710Z,100551.69
2017-11-07T02:31:02.375Z,100551.58
2017-11-07T02:33:30.093Z,100556.41
2017-11-07T02:35:57.760Z,100557.66
2017-11-07T02:38:25.495Z,100562.91
2017-11-07T02:40:53.290Z,100563.07
2017-11-07T02:43:20.960Z,100562.80
2017-11-07T02:45:48.566Z,100561.05
2017-11-07T02:48:16.284Z,100559.97
2017-11-07T02:50:43.896Z,100561.95
2017-11-07T02:53:11.523Z,100555.67
2017-11-07T02:55:39.241Z,100566.05
2017-11-07T02:58:06.911Z,100571.58
2017-11-07T03:00:34.619Z,100570.34
2017-11-07T03:03:02.279Z,100567.95
2017-11-07T03:05:29.952Z,100572.20
2017-11-07T03:07:57.619Z,100574.48
2017-11-07T03:10:25.275Z,100571.12
2017-11-07T03:12:52.884Z,100576.89
2017-11-07T03:15:20.487Z,100573.04
2017-11-07T03:17:48.211Z,100571.53
2017-11-07T03:20:15.823Z,100573.00
2017-11-07T03:22:43.452Z,100570.83
2017-11-07T03:25:11.108Z,100577.30
2017-11-07T03:27:38.776Z,100570.77
2017-11-07T03:30:06.394Z,100573.05
2017-11-07T03:32:34.067Z,100580.70
2017-11-07T03:35:01.678Z,100583.23
2017-11-07T03:37:29.282Z,100580.54
2017-11-07T03:39:57.011Z,100584.85
2017-11-07T03:42:24.623Z,100576.92
2017-11-07T03:44:52.215Z,100579.73
2017-11-07T03:47:19.892Z,100578.89
2017-11-07T03:49:47.497Z,100583.46
2017-11-07T03:52:15.107Z,100581.59
2017-11-07T03:54:42.916Z,100579.33
2017-11-07T03:57:10.580Z,100583.61
2017-11-07T03:59:38.187Z,100584.53
2017-11-07T04:02:05.915Z,100580.63
2017-11-07T04:04:33.579Z,100593.64
2017-11-07T04:07:01.187Z,100593.47
2017-11-07T04:09:28.939Z,100592.96
2017-11-07T04:11:56.551Z,100593.93
2017-11-07T04:14:24.160Z,100597.48
2017-11-07T04:16:51.815Z,100604.23
2017-11-07T04:19:19.427Z,100597.06
2017-11-07T04:21:47.035Z,100598.18
2017-11-07T04:24:14.692Z,100605.09
2017-11-07T04:26:42.303Z,100611.17
2017-11-07T04:29:09.968Z,100608.59
2017-11-07T04:31:37.626Z,100618.14
2017-11-07T04:34:05.244Z,100617.84
2017-11-07T04:36:32.854Z,100620.28
2017-11-07T04:39:00.514Z,100631.28
2017-11-07T04:41:28.126Z,100628.79
2017-11-07T04:43:55.752Z,100627.97
2017-11-07T04:46:23.407Z,100623.66
2017-11-07T04:48:51.012Z,100633.73
2017-11-07T04:51:18.619Z,100639.64
2017-11-07T04:53:46.331Z,100639.41
2017-11-07T04:56:13.939Z,100632.63
2017-11-07T04:58:41.543Z,100642.86
2017-11-07T05:01:09.261Z,100644.53
2017-11-07T05:03:36.868Z,100648.44
2017-11-07T05:06:04.529Z,100647.97
2017-11-07T05:08:32.236Z,100654.88
2017-11-07T05:10:59.868Z,100654.72
2017-11-07T05:13:27.476Z,100659.84
2017-11-07T05:15:55.267Z,100667.43
2017-11-07T05:18:22.867Z,100667.00
2017-11-07T05:20:50.467Z,100683.58
2017-11-07T05:23:18.287Z,100681.75
2017-11-07T05:25:45.962Z,100686.09
2017-11-07T05:28:13.630Z,100682.81
2017-11-07T05:30:41.340Z,100685.78
2017-11-07T05:33:08.952Z,100686.15
2017-11-07T05:35:36.624Z,100689.02
2017-11-07T05:38:04.331Z,100693.86
2017-11-07T05:40:31.936Z,100692.13
2017-11-07T05:42:59.547Z,100698.47
2017-11-07T05:45:27.221Z,100704.44
2017-11-07T05:47:54.864Z,100707.53
2017-11-07T05:50:22.687Z,100705.64
2017-11-07T05:52:50.386Z,100699.52
2017-11-07T05:55:18.091Z,100708.37
2017-11-07T05:57:45.695Z,100713.84
2017-11-07T06:00:13.363Z,100713.06
2017-11-07T06:02:41.028Z,100726.05
2017-11-07T06:05:08.635Z,100720.70
2017-11-07T06:07:36.304Z,100723.41
2017-11-07T06:10:03.909Z,100732.88
2017-11-07T06:12:31.527Z,100738.04
2017-11-07T06:14:59.179Z,100737.19
2017-11-07T06:17:26.792Z,100732.43
2017-11-07T06:19:54.408Z,100743.39
2017-11-07T06:22:22.131Z,100735.83
2017-11-07T06:24:49.804Z,100730.05
2017-11-07T06:27:17.472Z,100731.03
2017-11-07T06:29:45.127Z,100737.03
2017-11-07T06:32:12.736Z,100732.86
2017-11-07T06:34:40.342Z,100732.66
2017-11-07T06:37:08.003Z,100741.11
2017-11-07T06:39:35.610Z,100737.20
2017-11-07T06:42:03.227Z,100737.66
2017-11-07T06:44:30.897Z,100738.47
2017-11-07T06:46:58.568Z,100739.84
2017-11-07T06:49:26.170Z,100749.37
2017-11-07T06:51:53.811Z,100755.27
2017-11-07T06:54:21.423Z,100757.42
2017-11-07T06:56:49.027Z,100757.36
2017-11-07T06:59:16.715Z,100759.77
2017-11-07T07:01:44.348Z,100755.55
2017-11-07T07:04:12.013Z,100751.47
2017-11-07T07:06:39.651Z,100749.03
2017-11-07T07:09:07.320Z,100752.14
2017-11-07T07:11:34.980Z,100746.97
2017-11-07T07:14:02.636Z,100744.73
2017-11-07T07:16:30.243Z,100736.97
2017-11-07T07:18:57.849Z,100730.52
2017-11-07T07:21:25.504Z,100734.61
2017-11-07T07:23:53.169Z,100736.25
2017-11-07T07:26:20.772Z,100730.81
2017-11-07T07:28:48.415Z,100727.38
2017-11-07T07:31:16.076Z,100726.80
2017-11-07T07:33:43.680Z,100731.35
2017-11-07T07:36:11.347Z,100730.36
2017-11-07T07:38:38.959Z,100731.51
2017-11-07T07:41:06.564Z,100724.94
2017-11-07T07:43:34.217Z,100726.08
2017-11-07T07:46:01.881Z,100719.34
2017-11-07T07:48:29.483Z,100727.80
2017-11-07T07:50:57.303Z,100725.09
2017-11-07T07:53:24.908Z,100726.45
2017-11-07T07:55:52.523Z,100727.95
2017-11-07T07:58:20.168Z,100731.94
2017-11-07T08:00:47.777Z,100729.36
2017-11-07T08:03:15.388Z,100731.19
2017-11-07T08:05:43.127Z,100730.69
2017-11-07T08:08:10.883Z,100728.64
2017-11-07T08:10:38.539Z,100725.83
2017-11-07T08:13:06.252Z,100726.78
2017-11-07T08:15:33.926Z,100733.03
2017-11-07T08:18:01.539Z,100732.75
2017-11-07T08:20:29.268Z,100728.37
2017-11-07T08:22:56.886Z,100733.67
2017-11-07T08:25:24.548Z,100733.44
2017-11-07T08:27:52.203Z,100738.79
2017-11-07T08:30:19.823Z,100739.36
2017-11-07T08:32:47.430Z,100745.02
2017-11-07T08:35:15.088Z,100740.56
2017-11-07T08:37:42.700Z,100735.94
2017-11-07T08:40:10.390Z,100730.19
2017-11-07T08:42:38.168Z,100735.34
2017-11-07T08:45:05.865Z,100732.06
2017-11-07T08:47:33.617Z,100722.48
2017-11-07T08:50:01.426Z,100718.68
2017-11-07T08:52:29.205Z,100720.52
2017-11-07T08:54:56.984Z,100716.13
2017-11-07T08:57:24.789Z,100726.33
2017-11-07T08:59:52.569Z,100725.68
2017-11-07T09:02:20.307Z,100726.34
2017-11-07T09:04:48.125Z,100714.05
2017-11-07T09:07:15.897Z,100713.27
2017-11-07T09:09:44.664Z,100728.44
2017-11-07T09:12:12.609Z,100723.56
2017-11-07T09:14:40.393Z,100715.97
2017-11-07T09:17:08.155Z,100713.44
2017-11-07T09:19:36.000Z,100714.38
2017-11-07T09:22:03.773Z,100699.37
2017-11-07T09:24:31.558Z,100701.15
2017-11-07T09:26:59.390Z,100689.70
2017-11-07T09:29:27.251Z,100693.05
2017-11-07T09:31:55.105Z,100694.30
2017-11-07T09:34:22.937Z,100686.06
2017-11-07T09:36:50.742Z,100688.83
2017-11-07T09:39:18.525Z,100690.62
2017-11-07T09:41:46.364Z,100694.23
2017-11-07T09:44:14.133Z,100685.53
2017-11-07T09:46:41.948Z,100689.11
2017-11-07T09:49:09.774Z,100681.10
2017-11-07T09:51:37.565Z,100679.55
2017-11-07T09:54:05.366Z,100683.84
2017-11-07T09:56:33.192Z,100673.98
2017-11-07T09:59:00.981Z,100674.56
2017-11-07T10:01:28.761Z,100676.44
2017-11-07T10:03:56.592Z,100677.84
2017-11-07T10:06:24.368Z,100690.81
2017-11-07T10:08:52.165Z,100673.97
2017-11-07T10:11:20.878Z,100671.48
2017-11-07T10:13:48.793Z,100668.67
2017-11-07T10:16:16.689Z,100663.94
2017-11-07T10:18:44.621Z,100656.77
2017-11-07T10:21:12.411Z,100651.77
2017-11-07T10:23:40.201Z,100652.11
2017-11-07T10:26:08.034Z,100643.47
2017-11-07T10:28:35.937Z,100639.64
2017-11-07T10:31:03.832Z,100643.28
2017-11-07T10:33:31.790Z,100646.97
2017-11-07T10:35:59.656Z,100637.73
2017-11-07T10:38:27.449Z,100638.27
2017-11-07T10:40:55.290Z,100635.30
2017-11-07T10:43:23.204Z,100633.45
2017-11-07T10:45:51.003Z,100637.44
2017-11-07T10:48:18.838Z,100634.20
2017-11-07T10:50:46.633Z,100632.31
2017-11-07T10:53:16.444Z,100628.72
2017-11-07T10:55:44.401Z,100618.38
2017-11-07T10:58:12.264Z,100611.70
2017-11-07T11:00:42.084Z,100609.17
2017-11-07T11:03:10.048Z,100615.06
2017-11-07T11:05:38.745Z,100610.34
2017-11-07T11:08:06.764Z,100611.67
2017-11-07T11:10:37.525Z,100627.81
2017-11-07T11:13:06.114Z,100623.30
2017-11-07T11:15:33.904Z,100614.73
2017-11-07T11:18:01.844Z,100614.80
2017-11-07T11:20:30.570Z,100614.14
2017-11-07T11:22:58.474Z,100612.56
2017-11-07T11:25:26.454Z,100613.33
2017-11-07T11:27:54.257Z,100605.46
2017-11-07T11:30:23.002Z,100599.98
2017-11-07T11:32:51.766Z,100603.09
2017-11-07T11:35:20.814Z,100607.77
2017-11-07T11:37:48.714Z,100607.02
2017-11-07T11:40:18.117Z,100613.25
2017-11-07T11:42:45.914Z,100615.63
2017-11-07T11:45:13.707Z,100613.55
2017-11-07T11:47:41.540Z,100609.84
2017-11-07T11:50:09.340Z,100607.79
2017-11-07T11:52:37.122Z,100605.44
2017-11-07T11:55:05.961Z,100603.59
2017-11-07T11:57:35.490Z,100603.63
2017-11-07T12:00:03.409Z,100602.14
2017-11-07T12:02:32.087Z,100604.45
2017-11-07T12:04:59.985Z,100603.90
2017-11-07T12:07:28.710Z,100599.13
2017-11-07T12:09:56.613Z,100592.63
2017-11-07T12:12:24.528Z,100593.15
2017-11-07T12:14:53.328Z,100597.03
2017-11-07T12:17:21.428Z,100594.84
2017-11-07T12:19:49.218Z,100598.58
2017-11-07T12:22:17.009Z,100592.88
2017-11-07T12:24:44.801Z,100592.81
2017-11-07T12:27:12.605Z,100596.47
2017-11-07T12:29:40.408Z,100592.80
2017-11-07T12:32:08.174Z,100585.72
2017-11-07T12:34:35.945Z,100592.92
2017-11-07T12:37:03.772Z,100586.55
2017-11-07T12:39:31.574Z,100594.33
2017-11-07T12:41:59.365Z,100592.97
2017-11-07T12:44:27.140Z,100594.62
2017-11-07T12:46:55.042Z,100591.09
2017-11-07T12:49:22.831Z,100594.56
2017-11-07T12:52:00.549Z,100600.06
2017-11-07T12:54:28.409Z,100587.95
2017-11-07T12:56:56.312Z,100586.11
2017-11-07T12:59:24.109Z,100587.38
2017-11-07T13:01:51.994Z,100581.52
2017-11-07T13:04:20.775Z,100585.23
2017-11-07T13:06:48.702Z,100585.41
2017-11-07T13:09:17.446Z,100590.73
2017-11-07T13:11:45.241Z,100583.30
2017-11-07T13:14:13.193Z,100586.48
2017-11-07T13:16:41.036Z,100583.61
2017-11-07T13:19:09.866Z,100584.20
2017-11-07T13:21:40.110Z,100581.19
2017-11-07T13:24:08.980Z,100589.20
2017-11-07T13:26:36.778Z,100590.38
2017-11-07T13:29:07.208Z,100588.35
2017-11-07T13:31:37.252Z,100589.87
2017-11-07T13:34:05.383Z,100582.45
2017-11-07T13:36:34.787Z,100576.63
2017-11-07T13:39:05.319Z,100582.97
2017-11-07T13:41:34.228Z,100583.56
2017-11-07T13:44:02.664Z,100581.96
2017-11-07T13:46:31.538Z,100585.92
2017-11-07T13:49:00.795Z,100582.05
2017-11-07T13:51:29.788Z,100583.06
2017-11-07T13:54:00.740Z,100586.95
2017-11-07T13:56:32.466Z,100586.91
2017-11-07T13:59:02.187Z,100588.09
2017-11-07T14:01:31.682Z,100592.09
2017-11-07T14:04:03.805Z,100596.31
2017-11-07T14:06:42.509Z,100597.02
2017-11-07T14:09:12.384Z,100607.48
2017-11-07T14:11:40.667Z,100602.45
2017-11-07T14:14:12.930Z,100607.80
2017-11-07T14:16:44.000Z,100606.70
2017-11-07T14:19:13.975Z,100602.81
2017-11-07T14:21:44.720Z,100601.05
2017-11-07T14:24:12.999Z,100607.23
2017-11-07T14:26:42.622Z,100618.77
2017-11-07T14:29:10.841Z,100619.38
2017-11-07T14:31:40.219Z,100617.55
2017-11-07T14:34:18.392Z,100625.06
2017-11-07T14:39:23.753Z,100616.80
2017-11-07T14:44:29.355Z,100622.30
2017-11-07T14:46:58.606Z,100622.80
2017-11-07T14:49:28.878Z,100619.52
2017-11-07T14:51:59.006Z,100618.58
2017-11-07T14:54:29.930Z,100617.95
2017-11-07T14:57:01.340Z,100626.77
2017-11-07T14:59:32.071Z,100633.80
2017-11-07T15:02:02.542Z,100622.92
2017-11-07T15:04:34.814Z,100623.92
2017-11-07T15:07:06.607Z,100629.54
2017-11-07T15:09:37.811Z,100640.27
2017-11-07T15:12:07.900Z,100624.83
2017-11-07T15:14:37.691Z,100625.18
2017-11-07T15:19:44.339Z,100632.97
2017-11-07T15:22:13.077Z,100631.23
2017-11-07T15:24:43.599Z,100642.44
2017-11-07T15:27:18.021Z,100641.69
2017-11-07T15:29:48.639Z,100640.68
2017-11-07T15:32:18.827Z,100640.05
2017-11-07T15:34:48.203Z,100641.00
2017-11-07T15:37:18.559Z,100653.17
2017-11-07T15:39:56.582Z,100658.18
2017-11-07T15:42:33.143Z,100656.14
2017-11-07T15:45:05.441Z,100659.89
2017-11-07T15:47:42.411Z,100660.52
2017-11-07T15:50:30.149Z,100660.16
2017-11-07T15:55:39.295Z,100657.11
2017-11-07T15:58:12.964Z,100661.60
2017-11-07T16:00:47.315Z,100663.64
2017-11-07T16:03:22.846Z,100671.37
2017-11-07T16:05:55.100Z,100662.88
2017-11-07T16:08:25.550Z,100662.77
2017-11-07T16:10:59.546Z,100668.06
2017-11-07T16:13:29.240Z,100676.14
2017-11-07T16:16:01.031Z,100672.41
2017-11-07T16:18:35.150Z,100661.54
2017-11-07T16:21:09.110Z,100664.11
2017-11-07T16:23:41.389Z,100665.23
2017-11-07T16:26:11.225Z,100671.69
2017-11-07T16:28:42.564Z,100661.63
2017-11-07T16:31:11.894Z,100666.66
2017-11-07T16:33:49.133Z,100662.66
2017-11-07T16:36:18.862Z,100660.86
2017-11-07T16:41:24.705Z,100665.93
2017-11-07T16:43:56.201Z,100670.09
2017-11-07T16:46:25.581Z,100665.80
2017-11-07T16:49:01.881Z,100674.41
2017-11-07T16:51:33.097Z,100682.88
2017-11-07T16:54:04.659Z,100683.73
2017-11-07T16:56:34.423Z,100677.02
2017-11-07T16:59:08.403Z,100677.30
2017-11-07T17:01:39.474Z,100682.73
2017-11-07T17:04:23.761Z,100673.57
2017-11-07T17:09:31.578Z,100669.06
2017-11-07T17:12:03.581Z,100667.92
2017-11-07T17:14:39.635Z,100679.91
2017-11-07T17:17:13.823Z,100683.34
2017-11-07T17:19:43.547Z,100681.23
2017-11-07T17:22:15.855Z,100678.63
2017-11-07T17:24:47.860Z,100672.22
2017-11-07T17:30:00.909Z,100675.53
2017-11-07T17:32:32.146Z,100675.61
2017-11-07T17:35:06.333Z,100683.70
2017-11-07T17:40:18.787Z,100676.08
2017-11-07T17:42:48.739Z,100684.89
2017-11-07T17:45:17.385Z,100677.19
2017-11-07T17:47:45.165Z,100667.70
2017-11-07T17:50:12.789Z,100664.51
2017-11-07T17:52:40.482Z,100663.11
2017-11-07T17:55:08.186Z,100673.03
2017-11-07T17:57:35.819Z,100660.64
2017-11-07T18:00:03.472Z,100657.05
2017-11-07T18:02:31.143Z,100662.53
2017-11-07T18:04:58.844Z,100665.69
2017-11-07T18:07:26.536Z,100665.20
2017-11-07T18:09:54.256Z,100665.77
2017-11-07T18:12:21.883Z,100661.75
2017-11-07T18:14:49.503Z,100666.36
2017-11-07T18:17:17.219Z,100676.86
2017-11-07T18:19:44.896Z,100679.66
2017-11-07T18:22:12.512Z,100676.08
2017-11-07T18:24:40.243Z,100678.27
2017-11-07T18:27:07.933Z,100681.85
2017-11-07T18:29:35.605Z,100680.87
2017-11-07T18:32:03.347Z,100684.09
2017-11-07T18:34:30.989Z,100680.09
2017-11-07T18:36:58.610Z,100680.22
2017-11-07T18:39:26.304Z,100683.45
2017-11-07T18:41:53.991Z,100686.88
2017-11-07T18:44:21.625Z,100680.13
2017-11-07T18:46:49.295Z,100683.55
2017-11-07T18:49:16.911Z,100697.76
2017-11-07T18:51:44.596Z,100695.87
2017-11-07T18:54:12.283Z,100699.59
2017-11-07T18:56:39.972Z,100696.12
2017-11-07T18:59:07.628Z,100694.17
2017-11-07T19:01:35.388Z,100696.91
2017-11-07T19:04:03.012Z,100689.08
2017-11-07T19:06:30.635Z,100694.13
2017-11-07T19:08:58.301Z,100692.38
2017-11-07T19:11:26.720Z,100687.58
2017-11-07T19:13:54.347Z,100691.75
2017-11-07T19:16:22.094Z,100692.27
2017-11-07T19:18:49.741Z,100692.62
2017-11-07T19:21:17.387Z,100705.52
2017-11-07T19:23:45.055Z,100700.11
2017-11-07T19:26:12.818Z,100701.38
2017-11-07T19:28:40.463Z,100700.64
2017-11-07T19:31:08.154Z,100707.22
2017-11-07T19:33:35.823Z,100704.95
2017-11-07T19:36:03.517Z,100694.03
2017-11-07T19:38:31.223Z,100697.39
2017-11-07T19:40:58.908Z,100707.22
2017-11-07T19:43:26.539Z,100706.12
2017-11-07T19:45:54.275Z,100711.83
2017-11-07T19:48:21.899Z,100711.12
2017-11-07T19:50:49.533Z,100714.45
2017-11-07T19:53:17.197Z,100704.55
2017-11-07T19:55:44.828Z,100705.07
2017-11-07T19:58:12.462Z,100712.19
2017-11-07T20:00:40.207Z,100705.18
2017-11-07T20:03:07.911Z,100703.72
2017-11-07T20:05:35.615Z,100701.41
2017-11-07T20:08:03.361Z,100707.09
2017-11-07T20:10:31.036Z,100703.31
2017-11-07T20:12:58.722Z,100708.98
2017-11-07T20:15:26.539Z,100704.51
2017-11-07T20:17:54.172Z,100697.55
2017-11-07T20:20:21.791Z,100702.99
2017-11-07T20:22:49.471Z,100695.27
2017-11-07T20:25:17.096Z,100692.03
2017-11-07T20:27:44.715Z,100688.87
2017-11-07T20:30:12.396Z,100691.06
2017-11-07T20:32:40.016Z,100691.62
2017-11-07T20:35:07.683Z,100692.17
2017-11-07T20:37:35.357Z,100687.73
2017-11-07T20:40:02.971Z,100680.39
2017-11-07T20:42:30.587Z,100680.20
2017-11-07T20:44:58.253Z,100681.16
2017-11-07T20:47:25.877Z,100687.63
2017-11-07T20:49:53.554Z,100685.59
2017-11-07T20:52:21.276Z,100682.10
2017-11-07T20:54:48.959Z,100676.17
2017-11-07T20:57:16.598Z,100682.69
2017-11-07T20:59:44.357Z,100686.64
2017-11-07T21:02:12.048Z,100692.51
2017-11-07T21:04:39.657Z,100675.25
2017-11-07T21:07:07.323Z,100673.91
2017-11-07T21:09:34.943Z,100674.46
2017-11-07T21:12:02.557Z,100671.14
2017-11-07T21:14:30.233Z,100666.86
2017-11-07T21:16:57.859Z,100667.86
2017-11-07T21:19:25.484Z,100660.37
2017-11-07T21:21:53.307Z,100661.14
2017-11-07T21:24:20.959Z,100663.48
2017-11-07T21:26:48.588Z,100662.45
2017-11-07T21:29:16.416Z,100651.63
2017-11-07T21:31:44.039Z,100647.99
2017-11-07T21:34:11.719Z,100645.77
2017-11-07T21:36:39.411Z,100636.87
2017-11-07T21:39:07.036Z,100634.58
2017-11-07T21:41:34.652Z,100623.23
2017-11-07T21:44:02.441Z,100626.72
2017-11-07T21:46:30.127Z,100632.71
2017-11-07T21:48:57.820Z,100638.36
2017-11-07T21:51:25.475Z,100628.92
2017-11-07T21:53:53.083Z,100632.45
2017-11-07T21:56:20.759Z,100626.38
2017-11-07T21:58:48.423Z,100622.12
2017-11-07T22:01:16.048Z,100616.78
2017-11-07T22:03:43.723Z,100617.63
2017-11-07T22:06:11.552Z,100611.75
2017-11-07T22:08:39.162Z,100606.03
2017-11-07T22:11:06.845Z,100603.36
2017-11-07T22:13:34.520Z,100608.78
2017-11-07T22:16:02.147Z,100611.80
2017-11-07T22:18:29.852Z,100614.25
2017-11-07T22:20:57.519Z,100609.63
2017-11-07T22:23:25.951Z,100604.31
2017-11-07T22:25:53.631Z,100611.62
2017-11-07T22:28:21.311Z,100613.95
2017-11-07T22:30:48.935Z,100608.77
2017-11-07T22:33:16.547Z,100608.48
2017-11-07T22:35:44.216Z,100605.63
2017-11-07T22:38:11.832Z,100602.56
2017-11-07T22:40:39.447Z,100603.52
2017-11-07T22:43:07.117Z,100595.02
2017-11-07T22:45:34.800Z,100587.97
2017-11-07T22:48:02.481Z,100589.16
2017-11-07T22:50:30.151Z,100591.70
2017-11-07T22:52:57.766Z,100587.33
2017-11-07T22:55:25.380Z,100586.16
2017-11-07T22:57:53.110Z,100577.48
2017-11-07T23:00:20.739Z,100581.89
2017-11-07T23:02:48.352Z,100588.63
2017-11-07T23:05:16.026Z,100586.94
2017-11-07T23:07:43.634Z,100574.39
2017-11-07T23:10:11.247Z,100565.33
2017-11-07T23:12:39.028Z,100565.40
2017-11-07T23:15:06.689Z,100559.69
2017-11-07T23:17:34.306Z,100569.45
2017-11-07T23:20:02.036Z,100566.30
2017-11-07T23:22:29.647Z,100577.29
2017-11-07T23:24:57.276Z,100579.55
2017-11-07T23:27:24.944Z,100571.40
2017-11-07T23:29:52.563Z,100564.20
2017-11-07T23:32:20.171Z,100574.30
2017-11-07T23:37:28.913Z,100574.22
2017-11-07T23:39:56.527Z,100574.94
2017-11-07T23:42:24.639Z,100582.36
2017-11-07T23:44:52.316Z,100576.08
2017-11-07T23:47:19.926Z,100570.89
2017-11-07T23:49:47.595Z,100567.70
2017-11-07T23:52:15.260Z,100573.50
2017-11-07T23:54:42.876Z,100567.57
2017-11-07T23:57:10.561Z,100572.77
2017-11-07T23:59:38.287Z,100565.95
